Ala Coushatta Ind Res, Texas
Current Conditions -  °F | °C
As of 5:55 AM on Monday 24 Nov 2014 (Local Time) from K6R3 Reporting Station
Clear Clear  
Wind Chill: 50°   Ceiling: Unl
Heat Index: 50°   Visibility: 10mi
Dew Point: 43°   Wind: 9mph
Humidity: 76%   Direction: 350°N
Pressure: 29.92"   Gusts: 16mph
Location:  30.7078°N, 94.8036°W
Report Text: K6R3 241155Z AUTO 35008G14KT 10SM CLR 10/06 A2992 RMK AO2 T01000059 10166 20100
Loading
Personal Weather Stations






























Interactive Weather Map New forecast layout! Learn more

10-Day Weather Forecast

Advertisements
Track Severe Weather on mobile